createdAt,value
2023-03-11T00:00:28.625Z,96053.13
2023-03-11T00:01:31.657Z,96062.69
2023-03-11T00:02:34.474Z,96056.84
2023-03-11T00:03:37.420Z,96058.03
2023-03-11T00:04:40.255Z,96050.88
2023-03-11T00:05:44.937Z,96061.19
2023-03-11T00:06:48.020Z,96051.94
2023-03-11T00:07:51.140Z,96051.94
2023-03-11T00:08:54.243Z,96048.56
2023-03-11T00:09:57.442Z,96045.84
2023-03-11T00:11:01.749Z,96044.66
2023-03-11T00:12:05.483Z,96041.66
2023-03-11T00:13:11.237Z,96039.34
2023-03-11T00:14:14.097Z,96046.41
2023-03-11T00:15:16.967Z,96046.72
2023-03-11T00:16:19.844Z,96040.34
2023-03-11T00:17:22.824Z,96046.97
2023-03-11T00:18:28.324Z,96046.31
2023-03-11T00:19:31.361Z,96066.06
2023-03-11T00:20:37.533Z,96055.75
2023-03-11T00:21:40.597Z,96057.06
2023-03-11T00:22:43.594Z,96041.66
2023-03-11T00:23:47.248Z,96057.72
2023-03-11T00:24:50.156Z,96046.44
2023-03-11T00:25:53.499Z,96044.47
2023-03-11T00:26:56.215Z,96051.53
2023-03-11T00:28:00.116Z,96046.13
2023-03-11T00:29:03.214Z,96053.69
2023-03-11T00:30:07.015Z,96042.63
2023-03-11T00:31:13.511Z,96057.94
2023-03-11T00:32:16.929Z,96046.78
2023-03-11T00:33:19.897Z,96053.50
2023-03-11T00:34:22.799Z,96043.28
2023-03-11T00:35:29.038Z,96052.00
2023-03-11T00:36:36.517Z,96049.91
2023-03-11T00:37:39.433Z,96043.19
2023-03-11T00:38:42.438Z,96046.44
2023-03-11T00:39:45.636Z,96046.78
2023-03-11T00:40:48.936Z,96056.97
2023-03-11T00:41:52.122Z,96044.47
2023-03-11T00:42:55.341Z,96046.97
2023-03-11T00:43:58.188Z,96052.31
2023-03-11T00:45:01.294Z,96051.09
2023-03-11T00:46:05.135Z,96047.28
2023-03-11T00:47:11.178Z,96049.78
2023-03-11T00:48:15.273Z,96049.91
2023-03-11T00:49:18.303Z,96044.38
2023-03-11T00:50:24.509Z,96051.66
2023-03-11T00:51:28.370Z,96050.25
2023-03-11T00:52:31.216Z,96053.06
2023-03-11T00:53:34.181Z,96052.63
2023-03-11T00:54:37.080Z,96052.19
2023-03-11T00:55:40.275Z,96053.59
2023-03-11T00:56:43.506Z,96058.03
2023-03-11T00:57:47.151Z,96049.56
2023-03-11T00:58:49.940Z,96061.97
2023-03-11T00:59:53.604Z,96065.00
2023-03-11T01:00:56.529Z,96052.81
2023-03-11T01:01:59.670Z,96059.56
2023-03-11T01:03:03.363Z,96059.34
2023-03-11T01:04:06.559Z,96050.53
2023-03-11T01:05:10.274Z,96050.88
2023-03-11T01:06:14.087Z,96051.63
2023-03-11T01:07:16.993Z,96056.59
2023-03-11T01:08:20.007Z,96054.44
2023-03-11T01:09:24.095Z,96057.28
2023-03-11T01:10:27.945Z,96051.94
2023-03-11T01:11:30.988Z,96060.41
2023-03-11T01:12:33.814Z,96049.88
2023-03-11T01:13:37.012Z,96049.97
2023-03-11T01:14:39.918Z,96053.75
2023-03-11T01:15:42.710Z,96051.72
2023-03-11T01:16:46.613Z,96034.44
2023-03-11T01:17:49.463Z,96049.72
2023-03-11T01:18:52.214Z,96057.53
2023-03-11T01:19:55.402Z,96051.31
2023-03-11T01:20:58.214Z,96052.22
2023-03-11T01:22:01.603Z,96045.09
2023-03-11T01:23:05.308Z,96053.84
2023-03-11T01:24:08.165Z,96036.91
2023-03-11T01:25:14.263Z,96042.75
2023-03-11T01:26:17.286Z,96050.44
2023-03-11T01:27:20.105Z,96044.53
2023-03-11T01:28:23.048Z,96041.25
2023-03-11T01:29:25.932Z,96043.31
2023-03-11T01:30:30.223Z,96042.78
2023-03-11T01:31:33.459Z,96057.12
2023-03-11T01:32:36.402Z,96052.00
2023-03-11T01:33:40.054Z,96043.97
2023-03-11T01:34:42.872Z,96045.34
2023-03-11T01:35:46.823Z,96038.00
2023-03-11T01:36:49.609Z,96040.25
2023-03-11T01:37:53.389Z,96044.41
2023-03-11T01:38:56.387Z,96034.09
2023-03-11T01:39:59.915Z,96035.50
2023-03-11T01:41:02.968Z,96029.31
2023-03-11T01:42:06.094Z,96033.84
2023-03-11T01:43:40.179Z,96024.22
2023-03-11T01:44:43.292Z,96019.62
2023-03-11T01:45:52.098Z,96030.56
2023-03-11T01:47:02.382Z,96032.53
2023-03-11T01:48:05.289Z,96025.25
2023-03-11T01:49:12.673Z,96026.44
2023-03-11T01:50:15.502Z,96027.66
2023-03-11T01:51:38.619Z,96029.50
2023-03-11T01:52:44.421Z,96031.25
2023-03-11T01:53:47.459Z,96046.75
2023-03-11T01:54:51.853Z,96038.63
2023-03-11T01:55:55.094Z,96044.59
2023-03-11T01:56:59.182Z,96033.09
2023-03-11T01:58:09.253Z,96015.13
2023-03-11T01:59:16.408Z,96033.84
2023-03-11T02:00:19.842Z,96034.25
2023-03-11T02:01:24.283Z,96039.78
2023-03-11T02:02:40.930Z,96045.44
2023-03-11T02:03:43.847Z,96047.81
2023-03-11T02:04:47.564Z,96048.13
2023-03-11T02:05:52.977Z,96060.03
2023-03-11T02:06:59.016Z,96056.81
2023-03-11T02:08:02.276Z,96050.75
2023-03-11T02:09:05.136Z,96053.81
2023-03-11T02:10:08.898Z,96057.44
2023-03-11T02:11:27.710Z,96053.84
2023-03-11T02:12:35.000Z,96053.81
2023-03-11T02:13:40.250Z,96054.94
2023-03-11T02:14:49.601Z,96057.44
2023-03-11T02:15:52.933Z,96054.59
2023-03-11T02:16:57.779Z,96057.72
2023-03-11T02:18:05.452Z,96058.75
2023-03-11T02:19:41.204Z,96049.81
2023-03-11T02:20:49.681Z,96038.00
2023-03-11T02:21:53.181Z,96056.72
2023-03-11T02:22:57.569Z,96039.47
2023-03-11T02:24:05.630Z,96049.56
2023-03-11T02:25:30.168Z,96060.59
2023-03-11T02:26:58.534Z,96059.66
2023-03-11T02:28:03.837Z,96053.31
2023-03-11T02:29:10.426Z,96054.97
2023-03-11T02:30:14.462Z,96054.91
2023-03-11T02:31:17.587Z,96058.06
2023-03-11T02:32:22.700Z,96057.28
2023-03-11T02:33:31.601Z,96070.22
2023-03-11T02:34:36.530Z,96047.88
2023-03-11T02:35:39.348Z,96053.28
2023-03-11T02:36:43.237Z,96050.78
2023-03-11T02:37:48.844Z,96043.31
2023-03-11T02:38:51.882Z,96046.59
2023-03-11T02:39:55.789Z,96039.13
2023-03-11T02:41:00.721Z,96042.47
2023-03-11T02:42:17.689Z,96054.41
2023-03-11T02:43:26.507Z,96054.59
2023-03-11T02:44:29.918Z,96056.78
2023-03-11T02:45:33.622Z,96056.12
2023-03-11T02:46:39.274Z,96053.53
2023-03-11T02:47:42.782Z,96054.75
2023-03-11T02:48:47.327Z,96046.69
2023-03-11T02:49:50.240Z,96048.56
2023-03-11T02:50:53.834Z,96058.41
2023-03-11T02:51:56.804Z,96049.88
2023-03-11T02:52:59.684Z,96056.38
2023-03-11T02:54:05.928Z,96058.69
2023-03-11T02:55:12.125Z,96048.56
2023-03-11T02:56:15.548Z,96059.41
2023-03-11T02:57:18.450Z,96046.94
2023-03-11T02:58:21.689Z,96071.34
2023-03-11T02:59:24.441Z,96064.41
2023-03-11T03:00:27.597Z,96057.81
2023-03-11T03:01:30.871Z,96071.62
2023-03-11T03:02:33.747Z,96062.19
2023-03-11T03:03:37.070Z,96076.69
2023-03-11T03:04:40.166Z,96089.94
2023-03-11T03:05:42.992Z,96072.22
2023-03-11T03:06:46.100Z,96079.72
2023-03-11T03:07:50.045Z,96092.31
2023-03-11T03:08:53.037Z,96078.66
2023-03-11T03:09:55.893Z,96088.28
2023-03-11T03:11:00.132Z,96090.37
2023-03-11T03:12:04.507Z,96093.06
2023-03-11T03:13:07.401Z,96096.66
2023-03-11T03:14:10.248Z,96079.84
2023-03-11T03:15:13.792Z,96088.22
2023-03-11T03:16:16.754Z,96095.44
2023-03-11T03:17:19.830Z,96103.78
2023-03-11T03:18:23.379Z,96115.00
2023-03-11T03:19:26.506Z,96111.50
2023-03-11T03:20:29.410Z,96101.31
2023-03-11T03:21:32.613Z,96092.53
2023-03-11T03:22:35.493Z,96096.94
2023-03-11T03:23:38.356Z,96113.13
2023-03-11T03:24:41.322Z,96107.28
2023-03-11T03:25:45.629Z,96109.06
2023-03-11T03:26:48.402Z,96098.19
2023-03-11T03:27:51.423Z,96113.16
2023-03-11T03:28:54.582Z,96115.56
2023-03-11T03:29:57.582Z,96105.34
2023-03-11T03:31:08.327Z,96108.50
2023-03-11T03:32:11.312Z,96109.78
2023-03-11T03:33:14.173Z,96107.81
2023-03-11T03:34:17.094Z,96099.88
2023-03-11T03:35:19.817Z,96112.16
2023-03-11T03:36:22.653Z,96107.03
2023-03-11T03:37:27.467Z,96097.16
2023-03-11T03:38:30.492Z,96096.19
2023-03-11T03:39:34.121Z,96093.59
2023-03-11T03:40:37.095Z,96097.41
2023-03-11T03:41:39.946Z,96074.69
2023-03-11T03:42:42.848Z,96089.06
2023-03-11T03:43:45.854Z,96088.31
2023-03-11T03:44:49.059Z,96082.00
2023-03-11T03:46:04.460Z,96089.75
2023-03-11T03:47:07.720Z,96091.22
2023-03-11T03:48:10.608Z,96100.00
2023-03-11T03:49:13.665Z,96077.38
2023-03-11T03:50:16.615Z,96097.63
2023-03-11T03:51:19.359Z,96085.38
2023-03-11T03:52:22.171Z,96097.63
2023-03-11T03:53:24.990Z,96080.50
2023-03-11T03:54:27.970Z,96091.37
2023-03-11T03:55:30.805Z,96081.06
2023-03-11T03:56:33.901Z,96092.94
2023-03-11T03:57:37.046Z,96104.63
2023-03-11T03:58:40.324Z,96085.97
2023-03-11T03:59:43.343Z,96086.22
2023-03-11T04:00:46.282Z,96084.06
2023-03-11T04:01:49.636Z,96085.78
2023-03-11T04:02:52.561Z,96108.22
2023-03-11T04:03:55.320Z,96111.28
2023-03-11T04:04:58.110Z,96111.47
2023-03-11T04:06:21.282Z,96106.41
2023-03-11T04:07:24.206Z,96118.06
2023-03-11T04:08:27.113Z,96122.44
2023-03-11T04:09:30.010Z,96121.87
2023-03-11T04:10:32.755Z,96121.87
2023-03-11T04:11:35.708Z,96121.09
2023-03-11T04:12:38.731Z,96115.44
2023-03-11T04:13:41.736Z,96118.69
2023-03-11T04:14:45.269Z,96108.59
2023-03-11T04:15:48.099Z,96116.81
2023-03-11T04:16:51.234Z,96134.00
2023-03-11T04:17:54.229Z,96118.47
2023-03-11T04:18:57.343Z,96122.59
2023-03-11T04:20:00.102Z,96131.94
2023-03-11T04:21:07.302Z,96136.19
2023-03-11T04:22:10.076Z,96130.84
2023-03-11T04:23:13.245Z,96134.84
2023-03-11T04:24:16.094Z,96136.56
2023-03-11T04:25:19.052Z,96150.72
2023-03-11T04:26:22.026Z,96124.13
2023-03-11T04:27:25.009Z,96131.31
2023-03-11T04:28:28.116Z,96133.19
2023-03-11T04:29:30.975Z,96125.53
2023-03-11T04:30:34.113Z,96127.22
2023-03-11T04:31:37.102Z,96132.88
2023-03-11T04:32:39.982Z,96123.72
2023-03-11T04:33:43.152Z,96130.44
2023-03-11T04:34:46.014Z,96129.22
2023-03-11T04:35:48.851Z,96143.13
2023-03-11T04:36:53.976Z,96131.22
2023-03-11T04:37:56.952Z,96109.50
2023-03-11T04:38:59.954Z,96112.56
2023-03-11T04:40:03.864Z,96115.06
2023-03-11T04:41:07.167Z,96124.88
2023-03-11T04:42:10.156Z,96104.41
2023-03-11T04:43:13.157Z,96086.72
2023-03-11T04:44:16.082Z,96066.84
2023-03-11T04:45:19.042Z,96086.84
2023-03-11T04:46:22.405Z,96107.63
2023-03-11T04:47:25.550Z,96092.06
2023-03-11T04:48:28.735Z,96098.06
2023-03-11T04:49:31.617Z,96096.72
2023-03-11T04:50:34.571Z,96101.31
2023-03-11T04:51:37.778Z,96095.34
2023-03-11T04:52:40.745Z,96102.53
2023-03-11T04:53:43.942Z,96108.81
2023-03-11T04:54:46.796Z,96101.94
2023-03-11T04:55:50.704Z,96101.81
2023-03-11T04:56:54.158Z,96122.75
2023-03-11T04:57:57.058Z,96101.50
2023-03-11T04:59:00.251Z,96106.69
2023-03-11T05:00:10.422Z,96113.75
2023-03-11T05:01:13.306Z,96117.56
2023-03-11T05:02:16.193Z,96133.00
2023-03-11T05:03:19.739Z,96127.50
2023-03-11T05:04:22.793Z,96142.16
2023-03-11T05:05:25.594Z,96135.59
2023-03-11T05:06:28.441Z,96135.75
2023-03-11T05:07:31.628Z,96119.88
2023-03-11T05:08:35.004Z,96124.94
2023-03-11T05:09:37.912Z,96116.22
2023-03-11T05:10:42.958Z,96125.38
2023-03-11T05:11:45.783Z,96124.91
2023-03-11T05:12:52.490Z,96119.88
2023-03-11T05:13:55.365Z,96112.25
2023-03-11T05:14:58.163Z,96118.81
2023-03-11T05:16:01.136Z,96091.63
2023-03-11T05:17:04.226Z,96100.16
2023-03-11T05:18:07.146Z,96089.03
2023-03-11T05:19:28.419Z,96094.69
2023-03-11T05:20:32.565Z,96101.84
2023-03-11T05:21:35.626Z,96095.75
2023-03-11T05:22:38.854Z,96103.19
2023-03-11T05:23:41.748Z,96101.53
2023-03-11T05:24:44.910Z,96096.97
2023-03-11T05:25:47.674Z,96114.31
2023-03-11T05:26:50.699Z,96116.91
2023-03-11T05:27:53.569Z,96117.66
2023-03-11T05:28:56.560Z,96114.34
2023-03-11T05:29:59.592Z,96130.53
2023-03-11T05:31:02.604Z,96123.31
2023-03-11T05:32:05.751Z,96123.31
2023-03-11T05:33:08.651Z,96129.09
2023-03-11T05:34:11.548Z,96136.87
2023-03-11T05:35:14.687Z,96128.50
2023-03-11T05:36:17.767Z,96135.66
2023-03-11T05:37:20.674Z,96112.16
2023-03-11T05:38:23.753Z,96133.66
2023-03-11T05:39:26.556Z,96142.19
2023-03-11T05:40:29.620Z,96125.09
2023-03-11T05:41:32.621Z,96133.66
2023-03-11T05:42:35.473Z,96141.41
2023-03-11T05:43:38.409Z,96143.69
2023-03-11T05:44:42.205Z,96151.47
2023-03-11T05:45:45.269Z,96156.19
2023-03-11T05:46:48.110Z,96147.84
2023-03-11T05:47:53.077Z,96163.03
2023-03-11T05:48:56.160Z,96163.50
2023-03-11T05:49:59.187Z,96156.03
2023-03-11T05:51:07.911Z,96164.00
2023-03-11T05:52:11.020Z,96157.72
2023-03-11T05:53:14.223Z,96156.38
2023-03-11T05:54:17.868Z,96143.69
2023-03-11T05:55:20.831Z,96163.47
2023-03-11T05:56:23.827Z,96141.09
2023-03-11T05:57:27.136Z,96154.94
2023-03-11T05:58:31.082Z,96151.75
2023-03-11T05:59:35.649Z,96152.81
2023-03-11T06:00:38.695Z,96159.53
2023-03-11T06:01:43.284Z,96162.75
2023-03-11T06:02:46.377Z,96153.16
2023-03-11T06:03:49.226Z,96160.56
2023-03-11T06:04:52.302Z,96154.75
2023-03-11T06:05:55.912Z,96161.31
2023-03-11T06:06:58.881Z,96167.09
2023-03-11T06:08:01.707Z,96166.34
2023-03-11T06:09:04.607Z,96165.94
2023-03-11T06:10:08.064Z,96159.69
2023-03-11T06:11:11.604Z,96158.59
2023-03-11T06:12:14.484Z,96154.34
2023-03-11T06:13:17.282Z,96140.88
2023-03-11T06:14:20.120Z,96161.91
2023-03-11T06:15:23.026Z,96141.31
2023-03-11T06:16:26.371Z,96145.59
2023-03-11T06:17:30.487Z,96151.69
2023-03-11T06:18:33.704Z,96151.56
2023-03-11T06:19:36.923Z,96167.91
2023-03-11T06:20:39.936Z,96167.16
2023-03-11T06:21:42.813Z,96158.59
2023-03-11T06:22:48.997Z,96177.78
2023-03-11T06:23:52.031Z,96176.09
2023-03-11T06:24:55.103Z,96185.84
2023-03-11T06:26:03.174Z,96178.00
2023-03-11T06:27:06.217Z,96191.59
2023-03-11T06:28:09.489Z,96213.81
2023-03-11T06:29:14.714Z,96240.78
2023-03-11T06:30:18.705Z,96221.16
2023-03-11T06:31:25.693Z,96231.78
2023-03-11T06:32:29.966Z,96226.00
2023-03-11T06:33:33.045Z,96230.66
2023-03-11T06:34:35.991Z,96247.91
2023-03-11T06:35:38.854Z,96238.53
2023-03-11T06:36:41.713Z,96243.66
2023-03-11T06:37:44.733Z,96259.78
2023-03-11T06:38:50.199Z,96249.53
2023-03-11T06:39:54.007Z,96233.63
2023-03-11T06:41:01.160Z,96252.88
2023-03-11T06:42:04.096Z,96271.31
2023-03-11T06:43:06.979Z,96259.66
2023-03-11T06:44:11.557Z,96271.97
2023-03-11T06:45:14.464Z,96272.63
2023-03-11T06:46:21.219Z,96265.44
2023-03-11T06:47:24.206Z,96286.50
2023-03-11T06:48:28.158Z,96265.63
2023-03-11T06:49:31.143Z,96279.91
2023-03-11T06:50:34.607Z,96283.28
2023-03-11T06:51:37.584Z,96289.50
2023-03-11T06:52:40.496Z,96276.16
2023-03-11T06:53:44.164Z,96303.72
2023-03-11T06:54:47.391Z,96277.31
2023-03-11T06:56:08.073Z,96289.69
2023-03-11T06:57:11.269Z,96286.50
2023-03-11T06:58:14.034Z,96295.53
2023-03-11T06:59:17.095Z,96303.41
2023-03-11T07:00:20.238Z,96305.47
2023-03-11T07:01:25.740Z,96320.91
2023-03-11T07:02:28.880Z,96304.66
2023-03-11T07:03:31.781Z,96304.47
2023-03-11T07:04:34.714Z,96307.06
2023-03-11T07:05:37.630Z,96294.28
2023-03-11T07:06:42.012Z,96293.00
2023-03-11T07:07:44.946Z,96293.19
2023-03-11T07:08:49.628Z,96300.34
2023-03-11T07:09:55.927Z,96306.75
2023-03-11T07:11:13.073Z,96294.00
2023-03-11T07:12:16.129Z,96298.47
2023-03-11T07:13:19.400Z,96298.28
2023-03-11T07:14:23.010Z,96306.50
2023-03-11T07:15:26.018Z,96294.97
2023-03-11T07:16:30.996Z,96298.25
2023-03-11T07:17:34.201Z,96298.16
2023-03-11T07:18:37.946Z,96265.06
2023-03-11T07:19:41.307Z,96264.41
2023-03-11T07:20:44.472Z,96272.78
2023-03-11T07:21:47.535Z,96273.34
2023-03-11T07:22:50.464Z,96280.69
2023-03-11T07:23:59.167Z,96272.69
2023-03-11T07:25:02.067Z,96267.91
2023-03-11T07:26:05.434Z,96275.72
2023-03-11T07:27:09.009Z,96280.59
2023-03-11T07:28:14.209Z,96263.12
2023-03-11T07:29:18.553Z,96258.34
2023-03-11T07:30:21.914Z,96271.50
2023-03-11T07:31:27.366Z,96286.34
2023-03-11T07:32:30.459Z,96297.94
2023-03-11T07:33:34.367Z,96266.53
2023-03-11T07:34:37.404Z,96266.72
2023-03-11T07:35:40.499Z,96285.72
2023-03-11T07:36:43.653Z,96285.59
2023-03-11T07:37:46.842Z,96276.81
2023-03-11T07:39:00.150Z,96264.63
2023-03-11T07:40:03.746Z,96313.97
2023-03-11T07:41:07.386Z,96305.37
2023-03-11T07:42:10.522Z,96292.13
2023-03-11T07:43:13.470Z,96290.72
2023-03-11T07:44:17.456Z,96280.94
2023-03-11T07:45:20.316Z,96276.22
2023-03-11T07:46:25.065Z,96231.44
2023-03-11T07:47:28.200Z,96288.75
2023-03-11T07:48:31.502Z,96252.22
2023-03-11T07:49:34.556Z,96250.53
2023-03-11T07:50:37.340Z,96247.41
2023-03-11T07:51:42.728Z,96256.09
2023-03-11T07:52:46.049Z,96244.94
2023-03-11T07:53:50.415Z,96260.69
2023-03-11T07:54:53.260Z,96243.59
2023-03-11T07:55:57.942Z,96255.84
2023-03-11T07:57:01.524Z,96248.88
2023-03-11T07:58:04.496Z,96283.53
2023-03-11T07:59:07.450Z,96282.28
2023-03-11T08:00:12.860Z,96267.69
2023-03-11T08:01:22.124Z,96277.44
2023-03-11T08:02:25.086Z,96251.84
2023-03-11T08:03:28.068Z,96280.13
2023-03-11T08:04:31.151Z,96299.72
2023-03-11T08:05:34.704Z,96299.25
2023-03-11T08:06:38.478Z,96296.00
2023-03-11T08:07:41.349Z,96290.81
2023-03-11T08:08:44.614Z,96278.84
2023-03-11T08:09:47.473Z,96299.81
2023-03-11T08:10:50.414Z,96268.63
2023-03-11T08:11:53.453Z,96253.78
2023-03-11T08:12:56.371Z,96267.88
2023-03-11T08:13:59.314Z,96253.06
2023-03-11T08:15:02.283Z,96243.22
2023-03-11T08:16:08.014Z,96231.16
2023-03-11T08:17:11.209Z,96247.47
2023-03-11T08:18:14.174Z,96252.03
2023-03-11T08:19:17.293Z,96269.62
2023-03-11T08:20:20.877Z,96234.03
2023-03-11T08:21:26.895Z,96261.94
2023-03-11T08:22:29.930Z,96248.63
2023-03-11T08:23:32.907Z,96250.41
2023-03-11T08:24:36.082Z,96246.19
2023-03-11T08:25:40.350Z,96254.72
2023-03-11T08:26:43.329Z,96263.97
2023-03-11T08:27:46.253Z,96246.94
2023-03-11T08:28:50.342Z,96238.75
2023-03-11T08:29:53.152Z,96269.03
2023-03-11T08:30:56.353Z,96247.09
2023-03-11T08:31:59.468Z,96250.59
2023-03-11T08:33:02.597Z,96241.88
2023-03-11T08:34:08.952Z,96239.44
2023-03-11T08:35:12.130Z,96247.81
2023-03-11T08:36:15.314Z,96263.53
2023-03-11T08:37:18.408Z,96263.56
2023-03-11T08:38:21.644Z,96266.50
2023-03-11T08:39:24.774Z,96283.75
2023-03-11T08:40:27.777Z,96271.66
2023-03-11T08:41:31.012Z,96279.44
2023-03-11T08:42:35.710Z,96271.88
2023-03-11T08:43:40.422Z,96271.16
2023-03-11T08:44:43.489Z,96280.34
2023-03-11T08:45:46.464Z,96273.09
2023-03-11T08:46:49.931Z,96286.56
2023-03-11T08:47:52.951Z,96290.88
2023-03-11T08:48:59.773Z,96292.47
2023-03-11T08:50:05.808Z,96295.56
2023-03-11T08:51:13.175Z,96295.38
2023-03-11T08:52:16.024Z,96305.63
2023-03-11T08:53:18.876Z,96290.03
2023-03-11T08:54:22.301Z,96323.00
2023-03-11T08:55:27.992Z,96310.19
2023-03-11T08:56:31.118Z,96319.19
2023-03-11T08:57:34.165Z,96346.84
2023-03-11T08:58:37.203Z,96318.53
2023-03-11T08:59:40.474Z,96328.53
2023-03-11T09:00:43.489Z,96357.63
2023-03-11T09:01:47.157Z,96334.75
2023-03-11T09:02:50.190Z,96325.38
2023-03-11T09:03:53.448Z,96367.31
2023-03-11T09:04:56.362Z,96364.87
2023-03-11T09:06:00.708Z,96349.31
2023-03-11T09:07:03.872Z,96347.00
2023-03-11T09:08:07.106Z,96378.09
2023-03-11T09:09:14.864Z,96360.38
2023-03-11T09:10:18.321Z,96377.78
2023-03-11T09:11:22.856Z,96388.97
2023-03-11T09:12:25.628Z,96385.53
2023-03-11T09:13:29.508Z,96397.41
2023-03-11T09:14:32.514Z,96400.34
2023-03-11T09:15:36.707Z,96382.00
2023-03-11T09:16:40.003Z,96376.06
2023-03-11T09:17:43.064Z,96386.78
2023-03-11T09:18:46.389Z,96381.28
2023-03-11T09:19:49.717Z,96372.63
2023-03-11T09:20:58.923Z,96354.06
2023-03-11T09:22:03.292Z,96384.84
2023-03-11T09:23:07.242Z,96397.66
2023-03-11T09:24:10.453Z,96403.13
2023-03-11T09:25:14.325Z,96435.13
2023-03-11T09:26:17.419Z,96415.72
2023-03-11T09:27:20.956Z,96426.37
2023-03-11T09:28:24.432Z,96423.50
2023-03-11T09:29:27.588Z,96425.03
2023-03-11T09:30:31.386Z,96421.41
2023-03-11T09:31:34.298Z,96421.03
2023-03-11T09:32:37.364Z,96424.13
2023-03-11T09:33:41.643Z,96419.22
2023-03-11T09:34:44.563Z,96417.50
2023-03-11T09:35:47.533Z,96419.09
2023-03-11T09:36:50.813Z,96414.22
2023-03-11T09:37:53.864Z,96424.31
2023-03-11T09:38:56.949Z,96424.59
2023-03-11T09:39:59.773Z,96427.22
2023-03-11T09:41:05.271Z,96412.13
2023-03-11T09:42:24.150Z,96424.81
2023-03-11T09:44:00.387Z,96416.81
2023-03-11T09:45:05.809Z,96431.78
2023-03-11T09:46:30.632Z,96446.03
2023-03-11T09:48:13.141Z,96443.06
2023-03-11T09:49:57.145Z,96445.66
2023-03-11T09:51:09.452Z,96440.59
2023-03-11T09:52:15.553Z,96436.84
2023-03-11T09:53:44.674Z,96435.16
2023-03-11T09:54:51.220Z,96440.53
2023-03-11T09:55:58.623Z,96444.03
2023-03-11T09:57:03.906Z,96422.78
2023-03-11T09:58:18.500Z,96439.75
2023-03-11T09:59:31.285Z,96423.84
2023-03-11T10:00:34.516Z,96430.25
2023-03-11T10:01:46.062Z,96429.94
2023-03-11T10:02:50.156Z,96446.66
2023-03-11T10:04:01.887Z,96451.84
2023-03-11T10:05:15.067Z,96440.50
2023-03-11T10:06:24.736Z,96434.47
2023-03-11T10:07:50.111Z,96459.16
2023-03-11T10:09:13.281Z,96423.88
2023-03-11T10:10:18.324Z,96472.91
2023-03-11T10:11:45.074Z,96472.37
2023-03-11T10:13:11.056Z,96458.72
2023-03-11T10:14:37.066Z,96467.94
2023-03-11T10:15:49.177Z,96475.88
2023-03-11T10:17:07.825Z,96490.91
2023-03-11T10:18:20.536Z,96493.38
2023-03-11T10:19:34.134Z,96501.81
2023-03-11T10:20:43.392Z,96516.66
2023-03-11T10:22:02.185Z,96500.28
2023-03-11T10:23:08.145Z,96512.94
2023-03-11T10:24:14.641Z,96507.88
2023-03-11T10:25:26.697Z,96501.94
2023-03-11T10:26:41.885Z,96517.78
2023-03-11T10:27:50.083Z,96497.53
2023-03-11T10:29:30.602Z,96495.44
2023-03-11T10:30:41.601Z,96498.38
2023-03-11T10:31:59.893Z,96518.22
2023-03-11T10:33:08.020Z,96493.13
2023-03-11T10:34:22.118Z,96504.84
2023-03-11T10:35:39.699Z,96507.97
2023-03-11T10:36:51.824Z,96504.72
2023-03-11T10:38:19.695Z,96521.72
2023-03-11T10:39:23.826Z,96537.38
2023-03-11T10:40:31.778Z,96535.09
2023-03-11T10:41:47.222Z,96538.56
2023-03-11T10:42:52.659Z,96525.13
2023-03-11T10:44:07.469Z,96538.16
2023-03-11T10:45:15.308Z,96535.59
2023-03-11T10:46:26.016Z,96537.22
2023-03-11T10:47:29.751Z,96525.81
2023-03-11T10:48:33.448Z,96512.88
2023-03-11T10:49:37.161Z,96530.22
2023-03-11T10:50:59.121Z,96532.16
2023-03-11T10:52:04.423Z,96547.50
2023-03-11T10:53:11.259Z,96535.75
2023-03-11T10:54:41.464Z,96546.25
2023-03-11T10:55:53.305Z,96538.28
2023-03-11T10:57:00.085Z,96525.41
2023-03-11T10:58:15.165Z,96507.91
2023-03-11T10:59:31.590Z,96528.50
2023-03-11T11:00:34.934Z,96548.13
2023-03-11T11:01:38.010Z,96532.34
2023-03-11T11:02:52.610Z,96537.44
2023-03-11T11:03:59.692Z,96546.28
2023-03-11T11:05:07.828Z,96545.44
2023-03-11T11:06:32.637Z,96542.16
2023-03-11T11:07:42.310Z,96536.72
2023-03-11T11:08:47.018Z,96521.12
2023-03-11T11:10:12.669Z,96527.84
2023-03-11T11:11:25.041Z,96547.66
2023-03-11T11:12:27.845Z,96544.62
2023-03-11T11:13:34.834Z,96560.03
2023-03-11T11:14:45.462Z,96543.00
2023-03-11T11:15:55.254Z,96574.38
2023-03-11T11:16:58.344Z,96566.62
2023-03-11T11:18:24.372Z,96559.88
2023-03-11T11:19:29.802Z,96548.22
2023-03-11T11:20:34.642Z,96537.19
2023-03-11T11:21:40.880Z,96535.84
2023-03-11T11:22:51.209Z,96527.66
2023-03-11T11:24:26.658Z,96530.91
2023-03-11T11:25:59.142Z,96511.75
2023-03-11T11:27:12.150Z,96536.91
2023-03-11T11:28:20.997Z,96535.25
2023-03-11T11:29:23.883Z,96535.41
2023-03-11T11:30:28.317Z,96531.06
2023-03-11T11:31:31.280Z,96535.50
2023-03-11T11:32:34.283Z,96542.13
2023-03-11T11:33:50.084Z,96558.94
2023-03-11T11:35:04.313Z,96541.34
2023-03-11T11:36:16.162Z,96539.25
2023-03-11T11:37:19.125Z,96551.16
2023-03-11T11:38:27.217Z,96565.03
2023-03-11T11:39:43.116Z,96525.50
2023-03-11T11:40:46.222Z,96547.16
2023-03-11T11:41:51.040Z,96547.66
2023-03-11T11:42:59.988Z,96565.78
2023-03-11T11:44:07.412Z,96540.06
2023-03-11T11:45:26.686Z,96552.09
2023-03-11T11:46:34.573Z,96556.91
2023-03-11T11:47:45.431Z,96547.97
2023-03-11T11:49:17.042Z,96529.53
2023-03-11T11:50:51.587Z,96550.06
2023-03-11T11:52:14.052Z,96532.03
2023-03-11T11:53:56.056Z,96552.72
2023-03-11T11:55:15.473Z,96536.97
2023-03-11T11:56:18.403Z,96522.62
2023-03-11T11:57:23.632Z,96540.59
2023-03-11T11:58:26.611Z,96539.84
2023-03-11T11:59:33.673Z,96544.81
2023-03-11T12:00:42.961Z,96565.66
2023-03-11T12:02:05.372Z,96548.31
2023-03-11T12:03:32.709Z,96573.34
2023-03-11T12:05:14.280Z,96556.41
2023-03-11T12:06:25.544Z,96563.84
2023-03-11T12:07:57.473Z,96554.63
2023-03-11T12:09:24.684Z,96561.09
2023-03-11T12:10:50.249Z,96582.88
2023-03-11T12:12:28.660Z,96550.84
2023-03-11T12:13:49.981Z,96555.97
2023-03-11T12:15:13.452Z,96553.25
2023-03-11T12:16:46.560Z,96559.38
2023-03-11T12:17:53.444Z,96574.66
2023-03-11T12:19:17.114Z,96581.13
2023-03-11T12:20:44.042Z,96530.47
2023-03-11T12:22:21.042Z,96587.06
2023-03-11T12:24:08.719Z,96568.69
2023-03-11T12:25:27.868Z,96586.44
2023-03-11T12:26:36.412Z,96574.22
2023-03-11T12:27:50.270Z,96559.44
2023-03-11T12:29:16.083Z,96544.34
2023-03-11T12:30:36.995Z,96554.41
2023-03-11T12:31:42.044Z,96541.66
2023-03-11T12:32:52.910Z,96549.66
2023-03-11T12:34:03.360Z,96553.91
2023-03-11T12:35:32.291Z,96555.16
2023-03-11T12:36:39.444Z,96562.87
2023-03-11T12:37:43.359Z,96562.03
2023-03-11T12:38:48.627Z,96551.91
2023-03-11T12:39:51.467Z,96553.25
2023-03-11T12:41:21.197Z,96582.88
2023-03-11T12:42:27.705Z,96558.50
2023-03-11T12:43:36.181Z,96555.37
2023-03-11T12:44:40.421Z,96560.62
2023-03-11T12:45:55.897Z,96563.44
2023-03-11T12:46:59.159Z,96575.88
2023-03-11T12:48:34.568Z,96591.97
2023-03-11T12:49:40.919Z,96575.66
2023-03-11T12:50:44.930Z,96565.47
2023-03-11T12:52:14.056Z,96551.81
2023-03-11T12:53:18.193Z,96565.91
2023-03-11T12:54:22.943Z,96594.16
2023-03-11T12:55:31.716Z,96600.84
2023-03-11T12:56:45.131Z,96578.25
2023-03-11T12:57:48.426Z,96580.25
2023-03-11T12:59:32.283Z,96580.28
2023-03-11T13:01:03.331Z,96574.66
2023-03-11T13:02:28.351Z,96594.84